createdAt,value
2018-03-01T00:01:02.318Z,-9.80
2018-03-01T00:04:05.647Z,-9.90
2018-03-01T00:07:09.041Z,-9.90
2018-03-01T00:10:12.352Z,-9.90
2018-03-01T00:13:15.790Z,-9.90
2018-03-01T00:16:19.113Z,-9.90
2018-03-01T00:19:22.586Z,-9.90
2018-03-01T00:22:36.534Z,-9.90
2018-03-01T00:25:39.940Z,-9.90
2018-03-01T00:28:43.484Z,-9.90
2018-03-01T00:31:46.936Z,-9.90
2018-03-01T00:34:50.643Z,-9.90
2018-03-01T00:37:54.788Z,-9.90
2018-03-01T00:40:58.163Z,-10.00
2018-03-01T00:44:01.636Z,-10.00
2018-03-01T00:47:05.274Z,-10.00
2018-03-01T00:50:08.633Z,-10.00
2018-03-01T00:53:12.800Z,-10.10
2018-03-01T00:56:16.195Z,-10.10
2018-03-01T00:59:19.608Z,-10.10
2018-03-01T01:02:23.151Z,-10.10
2018-03-01T01:05:26.594Z,-10.10
2018-03-01T01:08:29.967Z,-10.10
2018-03-01T01:11:34.123Z,-10.20
2018-03-01T01:14:37.547Z,-10.20
2018-03-01T01:17:40.897Z,-10.20
2018-03-01T01:20:44.294Z,-10.20
2018-03-01T01:23:47.950Z,-10.20
2018-03-01T01:26:51.271Z,-10.20
2018-03-01T01:29:54.624Z,-10.20
2018-03-01T01:32:58.017Z,-10.30
2018-03-01T01:36:01.380Z,-10.20
2018-03-01T01:39:04.674Z,-10.30
2018-03-01T01:42:08.068Z,-10.30
2018-03-01T01:45:11.515Z,-10.30
2018-03-01T01:48:14.873Z,-10.40
2018-03-01T01:51:18.948Z,-10.40
2018-03-01T01:54:22.855Z,-10.40
2018-03-01T01:57:26.196Z,-10.40
2018-03-01T02:00:30.312Z,-10.40
2018-03-01T02:03:34.431Z,-10.40
2018-03-01T02:06:37.803Z,-10.40
2018-03-01T02:09:41.126Z,-10.40
2018-03-01T02:12:45.341Z,-10.50
2018-03-01T02:15:49.667Z,-10.50
2018-03-01T02:18:53.826Z,-10.50
2018-03-01T02:21:57.248Z,-10.50
2018-03-01T02:25:01.490Z,-10.50
2018-03-01T02:28:05.623Z,-10.50
2018-03-01T02:31:09.806Z,-10.40
2018-03-01T02:34:13.935Z,-10.50
2018-03-01T02:37:17.302Z,-10.50
2018-03-01T02:40:20.952Z,-10.50
2018-03-01T02:43:25.182Z,-10.50
2018-03-01T02:46:28.690Z,-10.50
2018-03-01T02:49:32.824Z,-10.40
2018-03-01T02:52:36.228Z,-10.40
2018-03-01T02:55:39.615Z,-10.40
2018-03-01T02:58:43.019Z,-10.40
2018-03-01T03:01:46.398Z,-10.40
2018-03-01T03:04:49.773Z,-10.30
2018-03-01T03:07:53.120Z,-10.30
2018-03-01T03:10:56.499Z,-10.30
2018-03-01T03:14:00.635Z,-10.30
2018-03-01T03:17:03.941Z,-10.30
2018-03-01T03:20:07.362Z,-10.30
2018-03-01T03:23:10.730Z,-10.30
2018-03-01T03:26:14.166Z,-10.30
2018-03-01T03:29:17.538Z,-10.30
2018-03-01T03:32:20.933Z,-10.30
2018-03-01T03:35:24.520Z,-10.30
2018-03-01T03:38:28.575Z,-10.30
2018-03-01T03:41:31.971Z,-10.30
2018-03-01T03:44:35.392Z,-10.30
2018-03-01T03:47:38.807Z,-10.30
2018-03-01T03:50:42.196Z,-10.30
2018-03-01T03:53:46.343Z,-10.30
2018-03-01T03:56:50.461Z,-10.30
2018-03-01T03:59:54.680Z,-10.40
2018-03-01T04:02:58.127Z,-10.40
2018-03-01T04:06:02.306Z,-10.40
2018-03-01T04:09:05.689Z,-10.40
2018-03-01T04:12:09.069Z,-10.40
2018-03-01T04:15:12.530Z,-10.40
2018-03-01T04:18:21.558Z,-10.40
2018-03-01T04:21:24.886Z,-10.40
2018-03-01T04:24:28.998Z,-10.40
2018-03-01T04:30:41.984Z,-10.40
2018-03-01T04:33:45.442Z,-10.40
2018-03-01T04:36:49.621Z,-10.40
2018-03-01T04:39:53.093Z,-10.40
2018-03-01T04:42:57.265Z,-10.50
2018-03-01T04:46:00.606Z,-10.50
2018-03-01T04:49:03.980Z,-10.50
2018-03-01T04:52:07.276Z,-10.50
2018-03-01T04:55:11.557Z,-10.60
2018-03-01T04:58:15.001Z,-10.60
2018-03-01T05:01:18.440Z,-10.60
2018-03-01T05:04:22.152Z,-10.70
2018-03-01T05:07:25.486Z,-10.80
2018-03-01T05:10:28.880Z,-10.80
2018-03-01T05:13:32.265Z,-10.80
2018-03-01T05:16:35.998Z,-10.90
2018-03-01T05:19:39.389Z,-10.80
2018-03-01T05:22:42.753Z,-10.90
2018-03-01T05:25:46.061Z,-10.90
2018-03-01T05:28:49.474Z,-10.90
2018-03-01T05:31:52.799Z,-10.90
2018-03-01T05:34:56.916Z,-11.00
2018-03-01T05:38:01.029Z,-11.00
2018-03-01T05:41:04.448Z,-11.00
2018-03-01T05:44:07.792Z,-11.00
2018-03-01T05:47:11.170Z,-11.00
2018-03-01T05:50:14.584Z,-11.00
2018-03-01T05:53:17.993Z,-11.00
2018-03-01T05:56:21.386Z,-11.00
2018-03-01T05:59:24.726Z,-11.00
2018-03-01T06:02:28.123Z,-11.00
2018-03-01T06:05:31.480Z,-11.10
2018-03-01T06:08:34.978Z,-11.00
2018-03-01T06:11:38.389Z,-11.10
2018-03-01T06:14:41.757Z,-11.10
2018-03-01T06:17:45.095Z,-11.10
2018-03-01T06:20:48.477Z,-11.00
2018-03-01T06:23:51.841Z,-11.00
2018-03-01T06:26:55.267Z,-11.00
2018-03-01T06:29:58.772Z,-11.00
2018-03-01T06:33:02.152Z,-10.90
2018-03-01T06:36:05.582Z,-10.90
2018-03-01T06:39:08.934Z,-10.80
2018-03-01T06:42:12.357Z,-10.70
2018-03-01T06:45:15.728Z,-10.60
2018-03-01T06:48:19.057Z,-10.50
2018-03-01T06:51:22.483Z,-10.50
2018-03-01T06:54:25.841Z,-10.50
2018-03-01T06:57:29.224Z,-10.40
2018-03-01T07:00:32.570Z,-10.40
2018-03-01T07:03:36.538Z,-10.40
2018-03-01T07:06:39.892Z,-10.40
2018-03-01T07:09:43.236Z,-10.40
2018-03-01T07:12:46.636Z,-10.30
2018-03-01T07:15:49.996Z,-10.30
2018-03-01T07:18:53.327Z,-10.30
2018-03-01T07:21:56.666Z,-10.20
2018-03-01T07:25:00.051Z,-10.10
2018-03-01T07:28:03.368Z,-10.00
2018-03-01T07:31:07.004Z,-10.00
2018-03-01T07:34:11.984Z,-9.70
2018-03-01T07:37:15.269Z,-9.80
2018-03-01T07:40:19.367Z,-9.50
2018-03-01T07:43:23.452Z,-9.60
2018-03-01T07:46:26.737Z,-9.60
2018-03-01T07:49:30.049Z,-9.70
2018-03-01T07:52:33.387Z,-9.70
2018-03-01T07:55:37.953Z,-9.30
2018-03-01T07:58:41.351Z,-9.30
2018-03-01T08:01:44.772Z,-9.20
2018-03-01T08:04:48.261Z,-9.20
2018-03-01T08:07:51.688Z,-9.30
2018-03-01T08:10:55.108Z,-9.40
2018-03-01T08:13:58.649Z,-9.10
2018-03-01T08:17:02.054Z,-8.90
2018-03-01T08:20:05.390Z,-8.90
2018-03-01T08:23:08.754Z,-8.90
2018-03-01T08:26:12.238Z,-8.80
2018-03-01T08:29:15.691Z,-8.60
2018-03-01T08:32:19.062Z,-8.80
2018-03-01T08:35:23.304Z,-8.10
2018-03-01T08:38:27.448Z,-7.80
2018-03-01T08:41:30.908Z,-7.80
2018-03-01T08:44:35.158Z,-7.80
2018-03-01T08:47:38.532Z,-7.80
2018-03-01T08:50:41.972Z,-7.80
2018-03-01T08:53:45.407Z,-7.70
2018-03-01T08:56:48.821Z,-7.70
2018-03-01T08:59:52.230Z,-7.30
2018-03-01T09:02:56.412Z,-7.10
2018-03-01T09:05:59.812Z,-7.10
2018-03-01T09:09:03.188Z,-6.90
2018-03-01T09:12:06.559Z,-7.30
2018-03-01T09:15:09.989Z,-7.20
2018-03-01T09:18:13.315Z,-6.60
2018-03-01T09:21:16.702Z,-6.70
2018-03-01T09:24:20.085Z,-6.90
2018-03-01T09:27:23.443Z,-6.60
2018-03-01T09:30:27.684Z,-6.20
2018-03-01T09:33:31.135Z,-6.20
2018-03-01T09:36:34.595Z,-5.90
2018-03-01T09:39:37.979Z,-5.90
2018-03-01T09:42:41.744Z,-5.70
2018-03-01T09:45:45.102Z,-5.30
2018-03-01T09:48:48.537Z,-5.10
2018-03-01T09:51:51.913Z,-5.00
2018-03-01T09:54:55.306Z,-5.10
2018-03-01T09:57:58.747Z,-5.10
2018-03-01T10:01:02.126Z,-4.60
2018-03-01T10:04:05.524Z,-4.00
2018-03-01T10:07:08.996Z,-3.60
2018-03-01T10:10:12.402Z,-3.10
2018-03-01T10:13:15.815Z,-3.00
2018-03-01T10:16:19.315Z,-3.90
2018-03-01T10:19:22.667Z,-4.00
2018-03-01T10:22:26.867Z,-3.80
2018-03-01T10:25:31.119Z,-3.60
2018-03-01T10:28:38.352Z,-3.60
2018-03-01T10:31:42.588Z,-3.40
2018-03-01T10:34:46.088Z,-3.50
2018-03-01T10:37:49.608Z,-3.40
2018-03-01T10:40:53.045Z,-2.80
2018-03-01T10:43:56.553Z,-2.70
2018-03-01T10:46:59.962Z,-2.50
2018-03-01T10:50:03.327Z,-3.20
2018-03-01T10:53:06.733Z,-3.70
2018-03-01T10:56:10.153Z,-3.60
2018-03-01T10:59:13.571Z,-3.90
2018-03-01T11:02:16.954Z,-3.30
2018-03-01T11:05:20.443Z,-3.10
2018-03-01T11:08:23.835Z,-3.30
2018-03-01T11:11:27.287Z,-3.30
2018-03-01T11:14:31.488Z,-3.20
2018-03-01T11:17:35.056Z,-3.20
2018-03-01T11:20:38.510Z,-3.00
2018-03-01T11:23:41.929Z,-3.40
2018-03-01T11:26:45.365Z,-3.70
2018-03-01T11:29:48.746Z,-3.30
2018-03-01T11:32:52.281Z,-3.30
2018-03-01T11:35:55.737Z,-3.50
2018-03-01T11:38:59.939Z,-3.40
2018-03-01T11:42:04.145Z,-3.60
2018-03-01T11:45:07.618Z,-3.60
2018-03-01T11:48:10.993Z,-3.70
2018-03-01T11:51:14.438Z,-3.70
2018-03-01T11:54:18.677Z,-3.70
2018-03-01T11:57:22.104Z,-3.70
2018-03-01T12:00:25.741Z,-3.80
2018-03-01T12:03:29.103Z,-3.90
2018-03-01T12:06:32.764Z,-4.20
2018-03-01T12:09:36.176Z,-4.30
2018-03-01T12:12:40.374Z,-4.40
2018-03-01T12:15:43.763Z,-4.40
2018-03-01T12:18:47.124Z,-4.60
2018-03-01T12:21:50.469Z,-4.50
2018-03-01T12:24:53.877Z,-4.70
2018-03-01T12:27:57.280Z,-4.80
2018-03-01T12:31:00.618Z,-4.60
2018-03-01T12:34:04.779Z,-4.60
2018-03-01T12:37:08.196Z,-4.60
2018-03-01T12:40:11.613Z,-4.40
2018-03-01T12:43:15.723Z,-4.50
2018-03-01T12:46:19.930Z,-4.50
2018-03-01T12:49:23.327Z,-4.50
2018-03-01T12:52:26.691Z,-4.30
2018-03-01T12:55:30.143Z,-4.10
2018-03-01T12:58:33.543Z,-4.10
2018-03-01T13:01:40.265Z,-4.30
2018-03-01T13:04:45.748Z,-4.20
2018-03-01T13:07:49.152Z,-4.30
2018-03-01T13:10:52.509Z,-4.10
2018-03-01T13:13:55.924Z,-4.30
2018-03-01T13:16:59.387Z,-4.20
2018-03-01T13:20:02.751Z,-4.00
2018-03-01T13:23:06.117Z,-4.00
2018-03-01T13:26:09.540Z,-4.00
2018-03-01T13:29:12.923Z,-4.10
2018-03-01T13:32:16.733Z,-4.00
2018-03-01T13:35:20.118Z,-3.90
2018-03-01T13:38:23.539Z,-4.00
2018-03-01T13:41:26.946Z,-3.80
2018-03-01T13:44:30.319Z,-3.90
2018-03-01T13:47:37.725Z,-3.80
2018-03-01T13:50:41.080Z,-3.70
2018-03-01T13:53:44.448Z,-3.60
2018-03-01T13:56:47.902Z,-3.60
2018-03-01T13:59:51.280Z,-3.60
2018-03-01T14:02:54.921Z,-3.60
2018-03-01T14:06:03.956Z,-3.70
2018-03-01T14:09:07.418Z,-3.70
2018-03-01T14:12:15.773Z,-3.70
2018-03-01T14:15:20.423Z,-3.80
2018-03-01T14:18:35.643Z,-3.80
2018-03-01T14:25:17.292Z,-3.90
2018-03-01T14:28:24.502Z,-3.80
2018-03-01T14:31:30.678Z,-3.80
2018-03-01T14:34:34.249Z,-3.80
2018-03-01T14:37:37.635Z,-3.70
2018-03-01T14:40:41.090Z,-3.80
2018-03-01T14:43:44.455Z,-3.90
2018-03-01T14:46:47.905Z,-3.90
2018-03-01T14:49:51.345Z,-3.70
2018-03-01T14:52:54.739Z,-3.80
2018-03-01T14:55:58.162Z,-3.80
2018-03-01T14:59:01.540Z,-3.90
2018-03-01T15:02:05.663Z,-4.00
2018-03-01T15:05:09.158Z,-4.00
2018-03-01T15:08:12.584Z,-3.90
2018-03-01T15:11:15.986Z,-3.90
2018-03-01T15:14:19.392Z,-3.80
2018-03-01T15:17:22.779Z,-3.90
2018-03-01T15:20:26.297Z,-3.80
2018-03-01T15:23:29.800Z,-3.80
2018-03-01T15:26:34.016Z,-3.80
2018-03-01T15:29:37.468Z,-3.80
2018-03-01T15:32:40.882Z,-3.90
2018-03-01T15:35:44.257Z,-3.90
2018-03-01T15:38:47.599Z,-3.90
2018-03-01T15:41:50.942Z,-3.90
2018-03-01T15:44:54.271Z,-3.90
2018-03-01T15:47:58.281Z,-4.00
2018-03-01T15:51:01.589Z,-4.10
2018-03-01T15:54:06.365Z,-4.10
2018-03-01T15:57:10.409Z,-4.10
2018-03-01T16:00:13.700Z,-4.20
2018-03-01T16:03:16.978Z,-4.20
2018-03-01T16:06:21.392Z,-4.20
2018-03-01T16:09:24.824Z,-4.30
2018-03-01T16:12:28.234Z,-4.20
2018-03-01T16:15:31.773Z,-4.20
2018-03-01T16:18:35.465Z,-4.30
2018-03-01T16:21:38.951Z,-4.30
2018-03-01T16:24:42.408Z,-4.30
2018-03-01T16:27:46.570Z,-4.40
2018-03-01T16:30:49.969Z,-4.50
2018-03-01T16:33:53.326Z,-4.50
2018-03-01T16:36:56.847Z,-4.50
2018-03-01T16:40:00.242Z,-4.50
2018-03-01T16:43:03.577Z,-4.60
2018-03-01T16:46:06.957Z,-4.60
2018-03-01T16:49:10.399Z,-4.70
2018-03-01T16:52:14.699Z,-4.70
2018-03-01T16:55:18.052Z,-4.80
2018-03-01T16:58:22.260Z,-4.80
2018-03-01T17:01:26.065Z,-4.80
2018-03-01T17:04:29.537Z,-4.90
2018-03-01T17:07:33.729Z,-4.90
2018-03-01T17:10:38.102Z,-5.00
2018-03-01T17:13:41.432Z,-5.00
2018-03-01T17:16:44.876Z,-5.10
2018-03-01T17:19:51.182Z,-5.10
2018-03-01T17:22:54.768Z,-5.20
2018-03-01T17:25:58.167Z,-5.10
2018-03-01T17:29:01.542Z,-5.20
2018-03-01T17:32:04.954Z,-5.20
2018-03-01T17:35:09.102Z,-5.30
2018-03-01T17:38:12.463Z,-5.30
2018-03-01T17:41:15.929Z,-5.30
2018-03-01T17:44:19.310Z,-5.30
2018-03-01T17:47:22.625Z,-5.30
2018-03-01T17:50:25.926Z,-5.30
2018-03-01T17:53:29.178Z,-5.40
2018-03-01T17:56:32.451Z,-5.40
2018-03-01T17:59:36.613Z,-5.50
2018-03-01T18:02:40.665Z,-5.60
2018-03-01T18:05:43.953Z,-5.60
2018-03-01T18:08:47.246Z,-5.70
2018-03-01T18:11:50.577Z,-5.70
2018-03-01T18:14:53.850Z,-5.80
2018-03-01T18:17:57.189Z,-5.90
2018-03-01T18:21:00.647Z,-5.90
2018-03-01T18:24:04.702Z,-6.00
2018-03-01T18:27:08.006Z,-6.00
2018-03-01T18:30:12.090Z,-6.10
2018-03-01T18:33:15.547Z,-6.10
2018-03-01T18:36:18.939Z,-6.10
2018-03-01T18:39:22.285Z,-6.20
2018-03-01T18:42:25.594Z,-6.20
2018-03-01T18:45:28.848Z,-6.20
2018-03-01T18:48:32.148Z,-6.30
2018-03-01T18:51:35.484Z,-6.30
2018-03-01T18:54:38.839Z,-6.40
2018-03-01T18:57:42.135Z,-6.40
2018-03-01T19:00:47.639Z,-6.40
2018-03-01T19:03:51.907Z,-6.50
2018-03-01T19:06:55.243Z,-6.50
2018-03-01T19:09:58.656Z,-6.50
2018-03-01T19:13:01.947Z,-6.50
2018-03-01T19:16:05.312Z,-6.60
2018-03-01T19:19:08.587Z,-6.60
2018-03-01T19:22:12.362Z,-6.70
2018-03-01T19:25:16.132Z,-6.70
2018-03-01T19:28:19.408Z,-6.70
2018-03-01T19:31:22.720Z,-6.70
2018-03-01T19:34:25.975Z,-6.80
2018-03-01T19:37:29.293Z,-6.80
2018-03-01T19:40:32.544Z,-6.90
2018-03-01T19:43:36.053Z,-6.90
2018-03-01T19:46:40.078Z,-7.00
2018-03-01T19:49:43.378Z,-7.00
2018-03-01T19:52:46.749Z,-7.00
2018-03-01T19:55:50.823Z,-7.10
2018-03-01T19:58:55.660Z,-7.10
2018-03-01T20:01:59.770Z,-7.10
2018-03-01T20:05:03.049Z,-7.10
2018-03-01T20:08:06.340Z,-7.10
2018-03-01T20:11:09.673Z,-7.20
2018-03-01T20:14:12.984Z,-7.20
2018-03-01T20:17:16.302Z,-7.20
2018-03-01T20:20:19.547Z,-7.30
2018-03-01T20:23:22.851Z,-7.30
2018-03-01T20:26:26.104Z,-7.30
2018-03-01T20:29:29.471Z,-7.40
2018-03-01T20:32:32.736Z,-7.40
2018-03-01T20:35:36.109Z,-7.40
2018-03-01T20:38:40.646Z,-7.50
2018-03-01T20:41:44.012Z,-7.50
2018-03-01T20:44:47.347Z,-7.50
2018-03-01T20:47:50.682Z,-7.50
2018-03-01T20:50:53.974Z,-7.50
2018-03-01T20:53:58.051Z,-7.60
2018-03-01T20:57:01.438Z,-7.60
2018-03-01T21:00:04.837Z,-7.60
2018-03-01T21:03:08.717Z,-7.60
2018-03-01T21:06:12.543Z,-7.70
2018-03-01T21:09:15.957Z,-7.70
2018-03-01T21:12:19.340Z,-7.80
2018-03-01T21:15:22.672Z,-7.70
2018-03-01T21:18:26.071Z,-7.70
2018-03-01T21:21:30.274Z,-7.80
2018-03-01T21:24:33.688Z,-7.80
2018-03-01T21:27:37.195Z,-7.80
2018-03-01T21:30:40.647Z,-7.80
2018-03-01T21:33:43.975Z,-7.90
2018-03-01T21:36:47.323Z,-7.90
2018-03-01T21:39:50.724Z,-7.90
2018-03-01T21:42:54.235Z,-8.00
2018-03-01T21:45:57.621Z,-8.00
2018-03-01T21:49:01.081Z,-8.00
2018-03-01T21:52:04.406Z,-8.00
2018-03-01T21:55:07.852Z,-8.10
2018-03-01T21:58:12.452Z,-8.00
2018-03-01T22:01:15.930Z,-8.10
2018-03-01T22:04:19.353Z,-8.10
2018-03-01T22:07:23.598Z,-8.10
2018-03-01T22:10:27.072Z,-8.20
2018-03-01T22:13:31.229Z,-8.20
2018-03-01T22:16:34.673Z,-8.20
2018-03-01T22:19:38.040Z,-8.20
2018-03-01T22:22:41.419Z,-8.20
2018-03-01T22:25:45.085Z,-8.30
2018-03-01T22:28:49.137Z,-8.30
2018-03-01T22:31:54.511Z,-8.30
2018-03-01T22:34:57.925Z,-8.30
2018-03-01T22:38:01.292Z,-8.30
2018-03-01T22:41:04.637Z,-8.30
2018-03-01T22:44:08.382Z,-8.40
2018-03-01T22:47:11.779Z,-8.30
2018-03-01T22:50:15.100Z,-8.40
2018-03-01T22:53:18.382Z,-8.40
2018-03-01T22:56:21.719Z,-8.30
2018-03-01T22:59:25.068Z,-8.40
2018-03-01T23:02:28.433Z,-8.40
2018-03-01T23:05:31.992Z,-8.40
2018-03-01T23:08:35.497Z,-8.50
2018-03-01T23:11:38.801Z,-8.40
2018-03-01T23:14:42.313Z,-8.40
2018-03-01T23:17:45.728Z,-8.50
2018-03-01T23:20:49.818Z,-8.50
2018-03-01T23:23:53.133Z,-8.50
2018-03-01T23:26:56.444Z,-8.50
2018-03-01T23:30:00.012Z,-8.50
2018-03-01T23:33:03.337Z,-8.50
2018-03-01T23:36:07.435Z,-8.50
2018-03-01T23:39:10.995Z,-8.60
2018-03-01T23:42:14.357Z,-8.60
2018-03-01T23:45:17.940Z,-8.60
2018-03-01T23:48:21.364Z,-8.60
2018-03-01T23:51:24.851Z,-8.60
2018-03-01T23:54:29.206Z,-8.70
2018-03-01T23:57:32.673Z,-8.70
